sensor_id;sensor_type;location;lat;lon;timestamp;temperature;humidity
13817;DHT22;6979;52.116;5.286;2022-10-22T00:02:09;18.30;99.90
13817;DHT22;6979;52.116;5.286;2022-10-22T00:04:38;18.30;99.90
13817;DHT22;6979;52.116;5.286;2022-10-22T00:07:05;18.30;99.90
13817;DHT22;6979;52.116;5.286;2022-10-22T00:09:32;18.30;99.90
13817;DHT22;6979;52.116;5.286;2022-10-22T00:12:00;18.30;99.90
13817;DHT22;6979;52.116;5.286;2022-10-22T00:14:27;18.20;99.90
13817;DHT22;6979;52.116;5.286;2022-10-22T00:16:53;18.20;99.90
13817;DHT22;6979;52.116;5.286;2022-10-22T00:19:21;18.20;99.90
13817;DHT22;6979;52.116;5.286;2022-10-22T00:21:47;18.20;99.90
13817;DHT22;6979;52.116;5.286;2022-10-22T00:24:14;18.20;99.90
13817;DHT22;6979;52.116;5.286;2022-10-22T00:26:41;18.20;99.90
13817;DHT22;6979;52.116;5.286;2022-10-22T00:29:09;18.20;99.90
13817;DHT22;6979;52.116;5.286;2022-10-22T00:31:36;18.20;99.90
13817;DHT22;6979;52.116;5.286;2022-10-22T00:34:03;18.20;99.90
13817;DHT22;6979;52.116;5.286;2022-10-22T00:36:32;18.10;99.90
13817;DHT22;6979;52.116;5.286;2022-10-22T00:38:59;18.10;99.90
13817;DHT22;6979;52.116;5.286;2022-10-22T00:41:26;18.20;99.90
13817;DHT22;6979;52.116;5.286;2022-10-22T00:43:57;18.20;99.90
13817;DHT22;6979;52.116;5.286;2022-10-22T00:46:28;18.20;99.90
13817;DHT22;6979;52.116;5.286;2022-10-22T00:48:57;18.20;99.90
13817;DHT22;6979;52.116;5.286;2022-10-22T00:51:27;18.20;99.90
13817;DHT22;6979;52.116;5.286;2022-10-22T00:53:59;18.20;99.90
13817;DHT22;6979;52.116;5.286;2022-10-22T00:56:27;18.20;99.90
13817;DHT22;6979;52.116;5.286;2022-10-22T00:58:56;18.20;99.90
13817;DHT22;6979;52.116;5.286;2022-10-22T01:01:27;18.20;99.90
13817;DHT22;6979;52.116;5.286;2022-10-22T01:03:55;18.20;99.90
13817;DHT22;6979;52.116;5.286;2022-10-22T01:06:25;18.20;99.90
13817;DHT22;6979;52.116;5.286;2022-10-22T01:09:01;18.20;99.90
13817;DHT22;6979;52.116;5.286;2022-10-22T01:11:35;18.30;99.90
13817;DHT22;6979;52.116;5.286;2022-10-22T01:14:13;18.30;99.90
13817;DHT22;6979;52.116;5.286;2022-10-22T01:16:48;18.30;99.90
13817;DHT22;6979;52.116;5.286;2022-10-22T01:19:34;18.30;99.90
13817;DHT22;6979;52.116;5.286;2022-10-22T01:22:10;18.30;99.90
13817;DHT22;6979;52.116;5.286;2022-10-22T01:24:52;18.30;99.90
13817;DHT22;6979;52.116;5.286;2022-10-22T01:27:29;18.30;99.90
13817;DHT22;6979;52.116;5.286;2022-10-22T01:30:03;18.30;99.90
13817;DHT22;6979;52.116;5.286;2022-10-22T01:32:38;18.30;99.90
13817;DHT22;6979;52.116;5.286;2022-10-22T01:35:09;18.20;99.90
13817;DHT22;6979;52.116;5.286;2022-10-22T01:37:43;18.20;99.90
13817;DHT22;6979;52.116;5.286;2022-10-22T01:40:14;18.30;99.90
13817;DHT22;6979;52.116;5.286;2022-10-22T01:42:41;18.30;99.90
13817;DHT22;6979;52.116;5.286;2022-10-22T01:45:13;18.30;99.90
13817;DHT22;6979;52.116;5.286;2022-10-22T01:47:47;18.30;99.90
13817;DHT22;6979;52.116;5.286;2022-10-22T01:50:34;18.20;99.90
13817;DHT22;6979;52.116;5.286;2022-10-22T01:53:17;18.30;99.90
13817;DHT22;6979;52.116;5.286;2022-10-22T01:55:54;18.30;99.90
13817;DHT22;6979;52.116;5.286;2022-10-22T01:58:33;18.20;99.90
13817;DHT22;6979;52.116;5.286;2022-10-22T02:01:06;18.20;99.90
13817;DHT22;6979;52.116;5.286;2022-10-22T02:03:38;18.20;99.90
13817;DHT22;6979;52.116;5.286;2022-10-22T02:06:11;18.20;99.90
13817;DHT22;6979;52.116;5.286;2022-10-22T02:08:40;18.20;99.90
13817;DHT22;6979;52.116;5.286;2022-10-22T02:11:07;18.20;99.90
13817;DHT22;6979;52.116;5.286;2022-10-22T02:13:40;18.20;99.90
13817;DHT22;6979;52.116;5.286;2022-10-22T02:16:13;18.20;99.90
13817;DHT22;6979;52.116;5.286;2022-10-22T02:18:44;18.20;99.90
13817;DHT22;6979;52.116;5.286;2022-10-22T02:21:15;18.20;99.90
13817;DHT22;6979;52.116;5.286;2022-10-22T02:23:42;18.20;99.90
13817;DHT22;6979;52.116;5.286;2022-10-22T02:26:15;18.20;99.90
13817;DHT22;6979;52.116;5.286;2022-10-22T02:28:54;18.20;99.90
13817;DHT22;6979;52.116;5.286;2022-10-22T02:31:26;18.20;99.90
13817;DHT22;6979;52.116;5.286;2022-10-22T02:33:55;18.10;99.90
13817;DHT22;6979;52.116;5.286;2022-10-22T02:36:23;18.20;99.90
13817;DHT22;6979;52.116;5.286;2022-10-22T02:38:51;18.10;99.90
13817;DHT22;6979;52.116;5.286;2022-10-22T02:41:18;18.20;99.90
13817;DHT22;6979;52.116;5.286;2022-10-22T02:43:49;18.20;99.90
13817;DHT22;6979;52.116;5.286;2022-10-22T02:46:24;18.10;99.90
13817;DHT22;6979;52.116;5.286;2022-10-22T02:48:51;18.10;99.90
13817;DHT22;6979;52.116;5.286;2022-10-22T02:51:18;18.10;99.90
13817;DHT22;6979;52.116;5.286;2022-10-22T02:53:45;18.10;99.90
13817;DHT22;6979;52.116;5.286;2022-10-22T02:56:12;18.00;99.90
13817;DHT22;6979;52.116;5.286;2022-10-22T02:58:38;18.10;99.90
13817;DHT22;6979;52.116;5.286;2022-10-22T03:01:05;18.00;99.90
13817;DHT22;6979;52.116;5.286;2022-10-22T03:03:33;18.00;99.90
13817;DHT22;6979;52.116;5.286;2022-10-22T03:06:00;18.00;99.90
13817;DHT22;6979;52.116;5.286;2022-10-22T03:08:27;18.00;99.90
13817;DHT22;6979;52.116;5.286;2022-10-22T03:10:55;18.00;99.90
13817;DHT22;6979;52.116;5.286;2022-10-22T03:13:23;17.90;99.90
13817;DHT22;6979;52.116;5.286;2022-10-22T03:15:50;17.90;99.90
13817;DHT22;6979;52.116;5.286;2022-10-22T03:18:17;17.90;99.90
13817;DHT22;6979;52.116;5.286;2022-10-22T03:20:45;17.90;99.90
13817;DHT22;6979;52.116;5.286;2022-10-22T03:23:14;17.90;99.90
13817;DHT22;6979;52.116;5.286;2022-10-22T03:25:42;17.80;99.90
13817;DHT22;6979;52.116;5.286;2022-10-22T03:28:12;17.80;99.90
13817;DHT22;6979;52.116;5.286;2022-10-22T03:30:41;17.80;99.90
13817;DHT22;6979;52.116;5.286;2022-10-22T03:33:07;17.80;99.90
13817;DHT22;6979;52.116;5.286;2022-10-22T03:35:39;17.80;99.90
13817;DHT22;6979;52.116;5.286;2022-10-22T03:38:09;17.80;99.90
13817;DHT22;6979;52.116;5.286;2022-10-22T03:40:37;17.80;99.90
13817;DHT22;6979;52.116;5.286;2022-10-22T03:43:04;17.70;99.90
13817;DHT22;6979;52.116;5.286;2022-10-22T03:45:31;17.80;99.90
13817;DHT22;6979;52.116;5.286;2022-10-22T03:47:57;17.70;99.90
13817;DHT22;6979;52.116;5.286;2022-10-22T03:50:24;17.70;99.90
13817;DHT22;6979;52.116;5.286;2022-10-22T03:52:54;17.70;99.90
13817;DHT22;6979;52.116;5.286;2022-10-22T03:55:24;17.70;99.90
13817;DHT22;6979;52.116;5.286;2022-10-22T03:57:50;17.70;99.90
13817;DHT22;6979;52.116;5.286;2022-10-22T04:00:17;17.70;99.90
13817;DHT22;6979;52.116;5.286;2022-10-22T04:02:44;17.60;99.90
13817;DHT22;6979;52.116;5.286;2022-10-22T04:05:11;17.60;99.90
13817;DHT22;6979;52.116;5.286;2022-10-22T04:07:38;17.60;99.90
13817;DHT22;6979;52.116;5.286;2022-10-22T04:10:05;17.60;99.90
13817;DHT22;6979;52.116;5.286;2022-10-22T04:12:34;17.60;99.90
13817;DHT22;6979;52.116;5.286;2022-10-22T04:15:01;17.60;99.90
13817;DHT22;6979;52.116;5.286;2022-10-22T04:17:32;17.60;99.90
13817;DHT22;6979;52.116;5.286;2022-10-22T04:20:00;17.50;99.90
13817;DHT22;6979;52.116;5.286;2022-10-22T04:22:26;17.50;99.90
13817;DHT22;6979;52.116;5.286;2022-10-22T04:24:53;17.50;99.90
13817;DHT22;6979;52.116;5.286;2022-10-22T04:27:20;17.50;99.90
13817;DHT22;6979;52.116;5.286;2022-10-22T04:29:48;17.50;99.90
13817;DHT22;6979;52.116;5.286;2022-10-22T04:32:15;17.50;99.90
13817;DHT22;6979;52.116;5.286;2022-10-22T04:34:42;17.40;99.90
13817;DHT22;6979;52.116;5.286;2022-10-22T04:37:09;17.40;99.90
13817;DHT22;6979;52.116;5.286;2022-10-22T04:39:35;17.40;99.90
13817;DHT22;6979;52.116;5.286;2022-10-22T04:42:03;17.40;99.90
13817;DHT22;6979;52.116;5.286;2022-10-22T04:44:30;17.40;99.90
13817;DHT22;6979;52.116;5.286;2022-10-22T04:46:58;17.40;99.90
13817;DHT22;6979;52.116;5.286;2022-10-22T04:49:25;17.40;99.90
13817;DHT22;6979;52.116;5.286;2022-10-22T04:51:52;17.40;99.90
13817;DHT22;6979;52.116;5.286;2022-10-22T04:54:18;17.40;99.90
13817;DHT22;6979;52.116;5.286;2022-10-22T04:56:45;17.40;99.90
13817;DHT22;6979;52.116;5.286;2022-10-22T04:59:12;17.40;99.90
13817;DHT22;6979;52.116;5.286;2022-10-22T05:01:41;17.40;99.90
13817;DHT22;6979;52.116;5.286;2022-10-22T05:04:11;17.40;99.90
13817;DHT22;6979;52.116;5.286;2022-10-22T05:06:39;17.40;99.90
13817;DHT22;6979;52.116;5.286;2022-10-22T05:09:08;17.40;99.90
13817;DHT22;6979;52.116;5.286;2022-10-22T05:11:38;17.30;99.90
13817;DHT22;6979;52.116;5.286;2022-10-22T05:14:07;17.30;99.90
13817;DHT22;6979;52.116;5.286;2022-10-22T05:16:34;17.30;99.90
13817;DHT22;6979;52.116;5.286;2022-10-22T05:19:03;17.30;99.90
13817;DHT22;6979;52.116;5.286;2022-10-22T05:21:32;17.30;99.90
13817;DHT22;6979;52.116;5.286;2022-10-22T05:23:59;17.30;99.90
13817;DHT22;6979;52.116;5.286;2022-10-22T05:26:26;17.30;99.90
13817;DHT22;6979;52.116;5.286;2022-10-22T05:28:54;17.30;99.90
13817;DHT22;6979;52.116;5.286;2022-10-22T05:31:21;17.30;99.90
13817;DHT22;6979;52.116;5.286;2022-10-22T05:33:48;17.20;99.90
13817;DHT22;6979;52.116;5.286;2022-10-22T05:36:19;17.20;99.90
13817;DHT22;6979;52.116;5.286;2022-10-22T05:38:47;17.20;99.90
13817;DHT22;6979;52.116;5.286;2022-10-22T05:41:16;17.20;99.90
13817;DHT22;6979;52.116;5.286;2022-10-22T05:43:43;17.20;99.90
13817;DHT22;6979;52.116;5.286;2022-10-22T05:46:12;17.20;99.90
13817;DHT22;6979;52.116;5.286;2022-10-22T05:48:39;17.20;99.90
13817;DHT22;6979;52.116;5.286;2022-10-22T05:51:08;17.20;99.90
13817;DHT22;6979;52.116;5.286;2022-10-22T05:53:37;17.20;99.90
13817;DHT22;6979;52.116;5.286;2022-10-22T05:56:07;17.10;99.90
13817;DHT22;6979;52.116;5.286;2022-10-22T05:58:36;17.20;99.90
13817;DHT22;6979;52.116;5.286;2022-10-22T06:01:04;17.20;99.90
13817;DHT22;6979;52.116;5.286;2022-10-22T06:03:31;17.20;99.90
13817;DHT22;6979;52.116;5.286;2022-10-22T06:05:59;17.10;99.90
13817;DHT22;6979;52.116;5.286;2022-10-22T06:08:27;17.20;99.90
13817;DHT22;6979;52.116;5.286;2022-10-22T06:10:54;17.20;99.90
13817;DHT22;6979;52.116;5.286;2022-10-22T06:13:23;17.20;99.90
13817;DHT22;6979;52.116;5.286;2022-10-22T06:15:49;17.10;99.90
13817;DHT22;6979;52.116;5.286;2022-10-22T06:18:18;17.10;99.90
13817;DHT22;6979;52.116;5.286;2022-10-22T06:20:44;17.10;99.90
13817;DHT22;6979;52.116;5.286;2022-10-22T06:23:12;17.10;99.90
13817;DHT22;6979;52.116;5.286;2022-10-22T06:25:39;17.10;99.90
13817;DHT22;6979;52.116;5.286;2022-10-22T06:28:06;17.10;99.90
13817;DHT22;6979;52.116;5.286;2022-10-22T06:30:36;17.10;99.90
13817;DHT22;6979;52.116;5.286;2022-10-22T06:33:03;17.10;99.90
13817;DHT22;6979;52.116;5.286;2022-10-22T06:35:30;17.10;99.90
13817;DHT22;6979;52.116;5.286;2022-10-22T06:37:57;17.10;99.90
13817;DHT22;6979;52.116;5.286;2022-10-22T06:40:24;17.10;99.90
13817;DHT22;6979;52.116;5.286;2022-10-22T06:42:53;17.00;99.90
13817;DHT22;6979;52.116;5.286;2022-10-22T06:45:20;17.10;99.90
13817;DHT22;6979;52.116;5.286;2022-10-22T06:47:48;17.00;99.90
13817;DHT22;6979;52.116;5.286;2022-10-22T06:50:15;17.10;99.90
13817;DHT22;6979;52.116;5.286;2022-10-22T06:52:44;17.10;99.90
13817;DHT22;6979;52.116;5.286;2022-10-22T06:55:14;17.10;99.90
13817;DHT22;6979;52.116;5.286;2022-10-22T06:57:41;17.10;99.90
13817;DHT22;6979;52.116;5.286;2022-10-22T07:00:08;17.10;99.90
13817;DHT22;6979;52.116;5.286;2022-10-22T07:02:35;17.10;99.90
13817;DHT22;6979;52.116;5.286;2022-10-22T07:05:05;17.10;99.90
13817;DHT22;6979;52.116;5.286;2022-10-22T07:07:32;17.20;99.90
13817;DHT22;6979;52.116;5.286;2022-10-22T07:09:58;17.20;99.90
13817;DHT22;6979;52.116;5.286;2022-10-22T07:12:25;17.20;99.90
13817;DHT22;6979;52.116;5.286;2022-10-22T07:14:55;17.20;99.90
13817;DHT22;6979;52.116;5.286;2022-10-22T07:17:22;17.30;99.90
13817;DHT22;6979;52.116;5.286;2022-10-22T07:19:50;17.30;99.90
13817;DHT22;6979;52.116;5.286;2022-10-22T07:22:18;17.30;99.90
13817;DHT22;6979;52.116;5.286;2022-10-22T07:24:46;17.40;99.90
13817;DHT22;6979;52.116;5.286;2022-10-22T07:27:13;17.40;99.90
13817;DHT22;6979;52.116;5.286;2022-10-22T07:29:40;17.50;99.90
13817;DHT22;6979;52.116;5.286;2022-10-22T07:32:07;17.50;99.90
13817;DHT22;6979;52.116;5.286;2022-10-22T07:34:35;17.60;99.90
13817;DHT22;6979;52.116;5.286;2022-10-22T07:37:02;17.70;99.90
13817;DHT22;6979;52.116;5.286;2022-10-22T07:39:31;17.70;99.90
13817;DHT22;6979;52.116;5.286;2022-10-22T07:41:57;17.70;99.90
13817;DHT22;6979;52.116;5.286;2022-10-22T07:44:24;17.80;99.90
13817;DHT22;6979;52.116;5.286;2022-10-22T07:46:51;17.80;99.90
13817;DHT22;6979;52.116;5.286;2022-10-22T07:49:20;17.90;99.90
13817;DHT22;6979;52.116;5.286;2022-10-22T07:51:50;18.00;99.90
13817;DHT22;6979;52.116;5.286;2022-10-22T07:54:19;18.00;99.90
13817;DHT22;6979;52.116;5.286;2022-10-22T07:56:47;18.00;99.90
13817;DHT22;6979;52.116;5.286;2022-10-22T07:59:14;18.10;99.90
13817;DHT22;6979;52.116;5.286;2022-10-22T08:01:41;18.10;99.90
13817;DHT22;6979;52.116;5.286;2022-10-22T08:04:10;18.20;99.90
13817;DHT22;6979;52.116;5.286;2022-10-22T08:06:37;18.20;99.90
13817;DHT22;6979;52.116;5.286;2022-10-22T08:09:04;18.20;99.90
13817;DHT22;6979;52.116;5.286;2022-10-22T08:11:31;18.30;99.90
13817;DHT22;6979;52.116;5.286;2022-10-22T08:14:05;18.30;99.90
13817;DHT22;6979;52.116;5.286;2022-10-22T08:16:32;18.40;99.90
13817;DHT22;6979;52.116;5.286;2022-10-22T08:27:20;18.60;99.90
13817;DHT22;6979;52.116;5.286;2022-10-22T08:29:48;18.60;99.90
13817;DHT22;6979;52.116;5.286;2022-10-22T08:32:17;18.70;99.90
13817;DHT22;6979;52.116;5.286;2022-10-22T08:34:47;18.70;99.90
13817;DHT22;6979;52.116;5.286;2022-10-22T08:37:14;18.70;99.90
13817;DHT22;6979;52.116;5.286;2022-10-22T08:39:42;18.70;99.90
13817;DHT22;6979;52.116;5.286;2022-10-22T08:45:31;18.80;99.90
13817;DHT22;6979;52.116;5.286;2022-10-22T08:48:09;18.90;99.90
13817;DHT22;6979;52.116;5.286;2022-10-22T08:50:40;18.90;99.90
13817;DHT22;6979;52.116;5.286;2022-10-22T08:53:12;18.90;99.90
13817;DHT22;6979;52.116;5.286;2022-10-22T08:55:42;19.00;99.90
13817;DHT22;6979;52.116;5.286;2022-10-22T08:58:17;19.00;99.90
13817;DHT22;6979;52.116;5.286;2022-10-22T09:00:54;19.00;99.90
13817;DHT22;6979;52.116;5.286;2022-10-22T09:03:33;19.00;99.90
13817;DHT22;6979;52.116;5.286;2022-10-22T09:06:07;19.10;99.90
13817;DHT22;6979;52.116;5.286;2022-10-22T09:08:39;19.10;99.90
13817;DHT22;6979;52.116;5.286;2022-10-22T09:11:23;19.20;99.90
13817;DHT22;6979;52.116;5.286;2022-10-22T09:13:51;19.20;99.90
13817;DHT22;6979;52.116;5.286;2022-10-22T09:23:23;19.40;99.90
13817;DHT22;6979;52.116;5.286;2022-10-22T09:25:56;19.50;99.90
13817;DHT22;6979;52.116;5.286;2022-10-22T09:28:26;19.70;99.90
13817;DHT22;6979;52.116;5.286;2022-10-22T09:31:04;19.80;99.90
13817;DHT22;6979;52.116;5.286;2022-10-22T09:33:46;20.00;99.90
13817;DHT22;6979;52.116;5.286;2022-10-22T09:36:33;20.20;99.90
13817;DHT22;6979;52.116;5.286;2022-10-22T09:39:26;20.30;99.90
13817;DHT22;6979;52.116;5.286;2022-10-22T09:41:55;20.40;99.90
13817;DHT22;6979;52.116;5.286;2022-10-22T09:44:22;20.40;99.90
13817;DHT22;6979;52.116;5.286;2022-10-22T09:46:49;20.40;99.90
13817;DHT22;6979;52.116;5.286;2022-10-22T09:49:23;20.40;99.90
13817;DHT22;6979;52.116;5.286;2022-10-22T09:51:52;20.40;99.90
13817;DHT22;6979;52.116;5.286;2022-10-22T09:54:26;20.50;99.90
13817;DHT22;6979;52.116;5.286;2022-10-22T09:57:04;20.50;99.90
13817;DHT22;6979;52.116;5.286;2022-10-22T09:59:36;20.50;99.90
13817;DHT22;6979;52.116;5.286;2022-10-22T10:02:14;20.50;99.90
13817;DHT22;6979;52.116;5.286;2022-10-22T10:04:47;20.50;99.90
13817;DHT22;6979;52.116;5.286;2022-10-22T10:07:15;20.60;99.90
13817;DHT22;6979;52.116;5.286;2022-10-22T10:09:46;20.70;99.90
13817;DHT22;6979;52.116;5.286;2022-10-22T10:12:23;20.80;99.90
13817;DHT22;6979;52.116;5.286;2022-10-22T10:14:58;20.90;99.90
13817;DHT22;6979;52.116;5.286;2022-10-22T10:17:32;21.00;99.90
13817;DHT22;6979;52.116;5.286;2022-10-22T10:20:12;21.20;99.90
13817;DHT22;6979;52.116;5.286;2022-10-22T10:22:47;21.20;99.90
13817;DHT22;6979;52.116;5.286;2022-10-22T10:25:46;21.30;99.90
13817;DHT22;6979;52.116;5.286;2022-10-22T10:28:31;21.30;99.90
13817;DHT22;6979;52.116;5.286;2022-10-22T10:31:09;21.30;99.90
13817;DHT22;6979;52.116;5.286;2022-10-22T10:33:46;21.30;99.90
13817;DHT22;6979;52.116;5.286;2022-10-22T10:36:23;21.40;99.90
13817;DHT22;6979;52.116;5.286;2022-10-22T10:39:00;21.40;99.90
13817;DHT22;6979;52.116;5.286;2022-10-22T10:41:41;21.40;99.90
13817;DHT22;6979;52.116;5.286;2022-10-22T10:44:28;21.40;99.90
13817;DHT22;6979;52.116;5.286;2022-10-22T10:47:08;21.40;99.90
13817;DHT22;6979;52.116;5.286;2022-10-22T10:49:37;21.40;99.90
13817;DHT22;6979;52.116;5.286;2022-10-22T10:52:12;21.50;99.90
13817;DHT22;6979;52.116;5.286;2022-10-22T10:54:45;21.50;99.90
13817;DHT22;6979;52.116;5.286;2022-10-22T10:57:27;21.40;99.90
13817;DHT22;6979;52.116;5.286;2022-10-22T11:00:07;21.40;99.90
13817;DHT22;6979;52.116;5.286;2022-10-22T11:10:29;21.40;99.90
13817;DHT22;6979;52.116;5.286;2022-10-22T11:17:42;21.60;99.90
13817;DHT22;6979;52.116;5.286;2022-10-22T11:21:02;21.70;99.90
13817;DHT22;6979;52.116;5.286;2022-10-22T11:24:28;21.80;99.90
13817;DHT22;6979;52.116;5.286;2022-10-22T11:35:45;22.10;99.90
13817;DHT22;6979;52.116;5.286;2022-10-22T11:38:40;22.20;99.90
13817;DHT22;6979;52.116;5.286;2022-10-22T11:41:12;22.20;99.90
13817;DHT22;6979;52.116;5.286;2022-10-22T11:43:56;22.20;99.90
13817;DHT22;6979;52.116;5.286;2022-10-22T11:46:28;22.30;99.90
13817;DHT22;6979;52.116;5.286;2022-10-22T11:49:04;22.30;99.90
13817;DHT22;6979;52.116;5.286;2022-10-22T11:51:34;22.40;99.90
13817;DHT22;6979;52.116;5.286;2022-10-22T11:54:22;22.40;99.90
13817;DHT22;6979;52.116;5.286;2022-10-22T11:56:57;22.50;99.90
13817;DHT22;6979;52.116;5.286;2022-10-22T11:59:40;22.50;99.90
13817;DHT22;6979;52.116;5.286;2022-10-22T12:02:24;22.50;99.90
13817;DHT22;6979;52.116;5.286;2022-10-22T12:05:16;22.40;99.90
13817;DHT22;6979;52.116;5.286;2022-10-22T12:07:54;22.40;99.90
13817;DHT22;6979;52.116;5.286;2022-10-22T12:10:26;22.40;99.90
13817;DHT22;6979;52.116;5.286;2022-10-22T12:12:55;22.30;99.90
13817;DHT22;6979;52.116;5.286;2022-10-22T12:15:25;22.30;99.90
13817;DHT22;6979;52.116;5.286;2022-10-22T12:17:58;22.30;99.90
13817;DHT22;6979;52.116;5.286;2022-10-22T12:20:26;22.30;99.90
13817;DHT22;6979;52.116;5.286;2022-10-22T12:22:56;22.20;99.90
13817;DHT22;6979;52.116;5.286;2022-10-22T12:25:28;22.20;99.90
13817;DHT22;6979;52.116;5.286;2022-10-22T12:27:56;22.20;99.90
13817;DHT22;6979;52.116;5.286;2022-10-22T12:30:24;22.10;99.90
13817;DHT22;6979;52.116;5.286;2022-10-22T12:32:52;22.10;99.90
13817;DHT22;6979;52.116;5.286;2022-10-22T12:35:24;22.10;99.90
13817;DHT22;6979;52.116;5.286;2022-10-22T12:37:53;22.00;99.90
13817;DHT22;6979;52.116;5.286;2022-10-22T12:40:24;22.10;99.90
13817;DHT22;6979;52.116;5.286;2022-10-22T12:42:52;22.20;99.90
13817;DHT22;6979;52.116;5.286;2022-10-22T12:45:19;22.30;99.90
13817;DHT22;6979;52.116;5.286;2022-10-22T12:47:47;22.40;99.90
13817;DHT22;6979;52.116;5.286;2022-10-22T12:50:19;22.50;99.90
13817;DHT22;6979;52.116;5.286;2022-10-22T12:52:47;22.60;99.90
13817;DHT22;6979;52.116;5.286;2022-10-22T12:55:16;22.70;99.90
13817;DHT22;6979;52.116;5.286;2022-10-22T12:57:46;22.80;99.90
13817;DHT22;6979;52.116;5.286;2022-10-22T13:00:21;23.00;99.90
13817;DHT22;6979;52.116;5.286;2022-10-22T13:02:52;23.00;99.90
13817;DHT22;6979;52.116;5.286;2022-10-22T13:05:22;23.10;99.90
13817;DHT22;6979;52.116;5.286;2022-10-22T13:07:54;23.10;99.90
13817;DHT22;6979;52.116;5.286;2022-10-22T13:10:31;23.10;99.90
13817;DHT22;6979;52.116;5.286;2022-10-22T13:13:00;23.10;99.90
13817;DHT22;6979;52.116;5.286;2022-10-22T13:15:36;23.20;99.90
13817;DHT22;6979;52.116;5.286;2022-10-22T13:18:12;23.30;99.90
13817;DHT22;6979;52.116;5.286;2022-10-22T13:20:50;23.30;99.90
13817;DHT22;6979;52.116;5.286;2022-10-22T13:23:18;23.50;99.90
13817;DHT22;6979;52.116;5.286;2022-10-22T13:25:56;23.50;99.90
13817;DHT22;6979;52.116;5.286;2022-10-22T13:28:26;23.60;99.90
13817;DHT22;6979;52.116;5.286;2022-10-22T13:30:55;23.80;99.90
13817;DHT22;6979;52.116;5.286;2022-10-22T13:33:24;23.90;99.90
13817;DHT22;6979;52.116;5.286;2022-10-22T13:35:53;24.00;99.90
13817;DHT22;6979;52.116;5.286;2022-10-22T13:38:22;24.20;99.90
13817;DHT22;6979;52.116;5.286;2022-10-22T13:40:50;24.30;99.90
13817;DHT22;6979;52.116;5.286;2022-10-22T13:43:17;24.40;99.90
13817;DHT22;6979;52.116;5.286;2022-10-22T13:45:47;24.40;99.90
13817;DHT22;6979;52.116;5.286;2022-10-22T13:48:16;24.30;99.90
13817;DHT22;6979;52.116;5.286;2022-10-22T13:50:46;24.20;99.90
13817;DHT22;6979;52.116;5.286;2022-10-22T13:53:17;24.10;99.90
13817;DHT22;6979;52.116;5.286;2022-10-22T13:55:44;24.00;99.90
13817;DHT22;6979;52.116;5.286;2022-10-22T13:58:13;23.90;99.90
13817;DHT22;6979;52.116;5.286;2022-10-22T14:00:44;23.90;99.90
13817;DHT22;6979;52.116;5.286;2022-10-22T14:03:15;23.90;99.90
13817;DHT22;6979;52.116;5.286;2022-10-22T14:05:44;23.90;99.90
13817;DHT22;6979;52.116;5.286;2022-10-22T14:08:12;23.90;99.90
13817;DHT22;6979;52.116;5.286;2022-10-22T14:10:39;23.90;99.90
13817;DHT22;6979;52.116;5.286;2022-10-22T14:13:08;23.90;99.90
13817;DHT22;6979;52.116;5.286;2022-10-22T14:15:36;24.00;99.90
13817;DHT22;6979;52.116;5.286;2022-10-22T14:18:04;24.00;99.90
13817;DHT22;6979;52.116;5.286;2022-10-22T14:20:35;24.10;99.90
13817;DHT22;6979;52.116;5.286;2022-10-22T14:23:12;24.20;99.90
13817;DHT22;6979;52.116;5.286;2022-10-22T14:25:40;24.20;99.90
13817;DHT22;6979;52.116;5.286;2022-10-22T14:28:08;24.20;99.90
13817;DHT22;6979;52.116;5.286;2022-10-22T14:30:35;24.20;99.90
13817;DHT22;6979;52.116;5.286;2022-10-22T14:33:05;24.20;99.90
13817;DHT22;6979;52.116;5.286;2022-10-22T14:35:36;24.20;99.90
13817;DHT22;6979;52.116;5.286;2022-10-22T14:38:03;24.10;99.90
13817;DHT22;6979;52.116;5.286;2022-10-22T14:40:30;24.00;99.90
13817;DHT22;6979;52.116;5.286;2022-10-22T14:42:57;23.90;99.90
13817;DHT22;6979;52.116;5.286;2022-10-22T14:45:26;23.80;99.90
13817;DHT22;6979;52.116;5.286;2022-10-22T14:47:53;23.70;99.90
13817;DHT22;6979;52.116;5.286;2022-10-22T14:50:21;23.50;99.90
13817;DHT22;6979;52.116;5.286;2022-10-22T14:52:50;23.40;99.90
13817;DHT22;6979;52.116;5.286;2022-10-22T14:55:17;23.30;99.90
13817;DHT22;6979;52.116;5.286;2022-10-22T14:57:45;23.30;99.90
13817;DHT22;6979;52.116;5.286;2022-10-22T15:00:16;23.20;99.90
13817;DHT22;6979;52.116;5.286;2022-10-22T15:02:46;23.10;99.90
13817;DHT22;6979;52.116;5.286;2022-10-22T15:05:14;23.00;99.90
13817;DHT22;6979;52.116;5.286;2022-10-22T15:07:42;22.90;99.90
13817;DHT22;6979;52.116;5.286;2022-10-22T15:10:10;22.80;99.90
13817;DHT22;6979;52.116;5.286;2022-10-22T15:12:37;22.80;99.90
13817;DHT22;6979;52.116;5.286;2022-10-22T15:15:05;22.70;99.90
13817;DHT22;6979;52.116;5.286;2022-10-22T15:17:32;22.70;99.90
13817;DHT22;6979;52.116;5.286;2022-10-22T15:19:59;22.60;99.90
13817;DHT22;6979;52.116;5.286;2022-10-22T15:22:28;22.50;99.90
13817;DHT22;6979;52.116;5.286;2022-10-22T15:24:56;22.50;99.90
13817;DHT22;6979;52.116;5.286;2022-10-22T15:27:24;22.50;99.90
13817;DHT22;6979;52.116;5.286;2022-10-22T15:29:51;22.40;99.90
13817;DHT22;6979;52.116;5.286;2022-10-22T15:32:18;22.40;99.90
13817;DHT22;6979;52.116;5.286;2022-10-22T15:34:45;22.40;99.90
13817;DHT22;6979;52.116;5.286;2022-10-22T15:37:12;22.30;99.90
13817;DHT22;6979;52.116;5.286;2022-10-22T15:39:39;22.30;99.90
13817;DHT22;6979;52.116;5.286;2022-10-22T15:42:07;22.30;99.90
13817;DHT22;6979;52.116;5.286;2022-10-22T15:44:36;22.30;99.90
13817;DHT22;6979;52.116;5.286;2022-10-22T15:47:05;22.20;99.90
13817;DHT22;6979;52.116;5.286;2022-10-22T15:49:35;22.20;99.90
13817;DHT22;6979;52.116;5.286;2022-10-22T15:52:03;22.20;99.90
13817;DHT22;6979;52.116;5.286;2022-10-22T15:54:35;22.10;99.90
13817;DHT22;6979;52.116;5.286;2022-10-22T15:57:02;22.00;99.90
13817;DHT22;6979;52.116;5.286;2022-10-22T15:59:33;22.00;99.90
13817;DHT22;6979;52.116;5.286;2022-10-22T16:02:02;22.00;99.90
13817;DHT22;6979;52.116;5.286;2022-10-22T16:04:31;21.90;99.90
13817;DHT22;6979;52.116;5.286;2022-10-22T16:07:01;21.80;99.90
13817;DHT22;6979;52.116;5.286;2022-10-22T16:09:31;21.80;99.90
13817;DHT22;6979;52.116;5.286;2022-10-22T16:11:57;21.80;99.90
13817;DHT22;6979;52.116;5.286;2022-10-22T16:14:24;21.70;99.90
13817;DHT22;6979;52.116;5.286;2022-10-22T16:16:54;21.70;99.90
13817;DHT22;6979;52.116;5.286;2022-10-22T16:19:30;21.70;99.90
13817;DHT22;6979;52.116;5.286;2022-10-22T16:21:58;21.60;99.90
13817;DHT22;6979;52.116;5.286;2022-10-22T16:24:26;21.60;99.90
13817;DHT22;6979;52.116;5.286;2022-10-22T16:26:53;21.50;99.90
13817;DHT22;6979;52.116;5.286;2022-10-22T16:29:20;21.40;99.90
13817;DHT22;6979;52.116;5.286;2022-10-22T16:31:48;21.40;99.90
13817;DHT22;6979;52.116;5.286;2022-10-22T16:34:15;21.30;99.90
13817;DHT22;6979;52.116;5.286;2022-10-22T16:36:43;21.30;99.90
13817;DHT22;6979;52.116;5.286;2022-10-22T16:39:10;21.30;99.90
13817;DHT22;6979;52.116;5.286;2022-10-22T16:41:37;21.20;99.90
13817;DHT22;6979;52.116;5.286;2022-10-22T16:44:06;21.10;99.90
13817;DHT22;6979;52.116;5.286;2022-10-22T16:46:33;21.10;99.90